createdAt,value
2018-02-09T00:02:04.264Z,97529
2018-02-09T00:04:32.439Z,97533
2018-02-09T00:07:00.615Z,97534
2018-02-09T00:09:28.790Z,97532
2018-02-09T00:11:56.956Z,97534
2018-02-09T00:14:25.137Z,97534
2018-02-09T00:16:53.325Z,97530
2018-02-09T00:19:21.502Z,97536
2018-02-09T00:21:49.686Z,97533
2018-02-09T00:24:17.857Z,97541
2018-02-09T00:26:46.017Z,97535
2018-02-09T00:29:14.193Z,97534
2018-02-09T00:31:42.359Z,97535
2018-02-09T00:34:10.546Z,97538
2018-02-09T00:36:38.726Z,97538
2018-02-09T00:39:06.894Z,97543
2018-02-09T00:41:35.061Z,97544
2018-02-09T00:44:03.241Z,97547
2018-02-09T00:46:31.406Z,97558
2018-02-09T00:48:59.561Z,97555
2018-02-09T00:51:27.734Z,97554
2018-02-09T00:53:55.929Z,97560
2018-02-09T00:56:24.107Z,97563
2018-02-09T00:58:52.279Z,97566
2018-02-09T01:01:20.451Z,97560
2018-02-09T01:03:48.649Z,97568
2018-02-09T01:06:16.812Z,97562
2018-02-09T01:08:44.996Z,97566
2018-02-09T01:11:13.166Z,97563
2018-02-09T01:13:41.338Z,97558
2018-02-09T01:16:09.507Z,97553
2018-02-09T01:18:37.676Z,97556
2018-02-09T01:21:05.851Z,97559
2018-02-09T01:23:34.025Z,97558
2018-02-09T01:26:02.199Z,97560
2018-02-09T01:28:30.393Z,97555
2018-02-09T01:30:58.559Z,97561
2018-02-09T01:33:26.757Z,97560
2018-02-09T01:35:54.919Z,97566
2018-02-09T01:38:23.137Z,97567
2018-02-09T01:40:51.277Z,97568
2018-02-09T01:43:19.445Z,97567
2018-02-09T01:45:47.605Z,97564
2018-02-09T01:48:15.787Z,97569
2018-02-09T01:50:43.952Z,97568
2018-02-09T01:53:12.145Z,97571
2018-02-09T01:55:40.308Z,97574
2018-02-09T01:58:08.473Z,97570
2018-02-09T02:00:36.651Z,97575
2018-02-09T02:03:04.834Z,97573
2018-02-09T02:05:33.008Z,97576
2018-02-09T02:08:01.179Z,97572
2018-02-09T02:10:29.354Z,97569
2018-02-09T02:12:57.527Z,97563
2018-02-09T02:15:25.722Z,97559
2018-02-09T02:17:53.888Z,97563
2018-02-09T02:20:22.049Z,97567
2018-02-09T02:22:50.233Z,97564
2018-02-09T02:25:18.416Z,97568
2018-02-09T02:27:46.609Z,97566
2018-02-09T02:30:14.769Z,97561
2018-02-09T02:32:42.934Z,97562
2018-02-09T02:35:11.126Z,97556
2018-02-09T02:37:40.078Z,97558
2018-02-09T02:40:08.254Z,97558
2018-02-09T02:42:36.443Z,97557
2018-02-09T02:45:04.605Z,97562
2018-02-09T02:47:32.762Z,97563
2018-02-09T02:50:00.947Z,97564
2018-02-09T02:52:29.115Z,97562
2018-02-09T02:54:57.302Z,97564
2018-02-09T02:57:25.488Z,97560
2018-02-09T02:59:53.671Z,97558
2018-02-09T03:02:21.866Z,97559
2018-02-09T03:04:50.046Z,97563
2018-02-09T03:07:18.220Z,97566
2018-02-09T03:09:46.401Z,97563
2018-02-09T03:12:15.346Z,97559
2018-02-09T03:14:43.533Z,97568
2018-02-09T03:17:11.710Z,97561
2018-02-09T03:19:39.881Z,97564
2018-02-09T03:22:08.045Z,97568
2018-02-09T03:24:36.223Z,97563
2018-02-09T03:27:04.388Z,97570
2018-02-09T03:29:32.554Z,97570
2018-02-09T03:32:00.746Z,97569
2018-02-09T03:34:28.933Z,97571
2018-02-09T03:36:57.093Z,97569
2018-02-09T03:39:25.265Z,97570
2018-02-09T03:41:53.443Z,97565
2018-02-09T03:44:21.610Z,97566
2018-02-09T03:46:49.784Z,97566
2018-02-09T03:49:17.941Z,97556
2018-02-09T03:51:46.113Z,97562
2018-02-09T03:54:14.283Z,97560
2018-02-09T03:56:42.474Z,97561
2018-02-09T03:59:10.699Z,97556
2018-02-09T04:01:38.890Z,97555
2018-02-09T04:04:07.850Z,97557
2018-02-09T04:06:36.028Z,97554
2018-02-09T04:09:04.257Z,97554
2018-02-09T04:11:32.435Z,97552
2018-02-09T04:14:00.601Z,97550
2018-02-09T04:16:28.765Z,97552
2018-02-09T04:18:57.737Z,97554
2018-02-09T04:21:25.940Z,97553
2018-02-09T04:23:54.105Z,97555
2018-02-09T04:26:23.048Z,97556
2018-02-09T04:28:51.207Z,97550
2018-02-09T04:31:19.388Z,97555
2018-02-09T04:33:47.567Z,97553
2018-02-09T04:36:15.741Z,97554
2018-02-09T04:38:43.935Z,97553
2018-02-09T04:41:12.129Z,97558
2018-02-09T04:43:40.305Z,97556
2018-02-09T04:46:09.262Z,97557
2018-02-09T04:48:37.443Z,97557
2018-02-09T04:51:05.646Z,97556
2018-02-09T04:53:33.825Z,97556
2018-02-09T04:56:02.785Z,97552
2018-02-09T04:58:30.954Z,97554
2018-02-09T05:00:59.891Z,97548
2018-02-09T05:03:28.834Z,97549
2018-02-09T05:05:57.018Z,97546
2018-02-09T05:08:25.209Z,97544
2018-02-09T05:10:53.419Z,97548
2018-02-09T05:13:22.363Z,97544
2018-02-09T05:15:50.534Z,97544
2018-02-09T05:18:18.739Z,97547
2018-02-09T05:20:46.906Z,97553
2018-02-09T05:23:15.082Z,97555
2018-02-09T05:25:43.264Z,97555
2018-02-09T05:28:11.468Z,97550
2018-02-09T05:30:39.665Z,97553
2018-02-09T05:33:07.898Z,97549
2018-02-09T05:35:36.849Z,97555
2018-02-09T05:38:05.037Z,97554
2018-02-09T05:40:33.216Z,97554
2018-02-09T05:43:01.412Z,97553
2018-02-09T05:45:30.365Z,97550
2018-02-09T05:47:58.533Z,97556
2018-02-09T05:50:26.710Z,97556
2018-02-09T05:52:54.878Z,97556
2018-02-09T05:55:23.047Z,97558
2018-02-09T05:57:51.246Z,97558
2018-02-09T06:00:19.421Z,97561
2018-02-09T06:02:47.615Z,97562
2018-02-09T06:05:15.804Z,97552
2018-02-09T06:07:44.782Z,97563
2018-02-09T06:10:13.005Z,97557
2018-02-09T06:12:41.187Z,97554
2018-02-09T06:15:09.460Z,97561
2018-02-09T06:17:37.701Z,97560
2018-02-09T06:20:06.662Z,97557
2018-02-09T06:22:34.825Z,97559
2018-02-09T06:25:03.071Z,97560
2018-02-09T06:27:31.309Z,97558
2018-02-09T06:29:59.556Z,97561
2018-02-09T06:32:27.838Z,97565
2018-02-09T06:34:56.066Z,97566
2018-02-09T06:37:24.369Z,97569
2018-02-09T06:39:52.547Z,97565
2018-02-09T06:42:20.776Z,97569
2018-02-09T06:44:49.759Z,97577
2018-02-09T06:47:18.045Z,97574
2018-02-09T06:49:47.025Z,97570
2018-02-09T06:52:15.257Z,97569
2018-02-09T06:54:43.452Z,97570
2018-02-09T06:57:12.418Z,97568
2018-02-09T06:59:40.624Z,97571
2018-02-09T07:02:08.822Z,97574
2018-02-09T07:04:37.024Z,97578
2018-02-09T07:07:11.262Z,97580
2018-02-09T07:09:39.522Z,97576
2018-02-09T07:12:07.811Z,97582
2018-02-09T07:14:36.079Z,97582
2018-02-09T07:17:04.313Z,97576
2018-02-09T07:19:32.567Z,97578
2018-02-09T07:22:00.760Z,97578
2018-02-09T07:24:28.967Z,97577
2018-02-09T07:26:57.902Z,97581
2018-02-09T07:29:26.079Z,97579
2018-02-09T07:31:54.263Z,97584
2018-02-09T07:34:22.440Z,97580
2018-02-09T07:36:50.630Z,97580
2018-02-09T07:39:18.810Z,97579
2018-02-09T07:41:47.049Z,97582
2018-02-09T07:44:15.348Z,97580
2018-02-09T07:46:43.533Z,97578
2018-02-09T07:49:11.729Z,97577
2018-02-09T07:51:40.727Z,97574
2018-02-09T07:54:09.702Z,97577
2018-02-09T07:56:37.897Z,97575
2018-02-09T07:59:06.897Z,97576
2018-02-09T09:23:33.605Z,97540
2018-02-09T09:26:01.808Z,97542
2018-02-09T09:28:29.993Z,97537
2018-02-09T09:30:58.188Z,97539
2018-02-09T09:33:26.380Z,97535
2018-02-09T09:35:54.631Z,97528
2018-02-09T09:38:22.786Z,97527
2018-02-09T09:40:50.967Z,97528
2018-02-09T09:43:19.178Z,97531
2018-02-09T09:45:47.386Z,97529
2018-02-09T09:48:15.567Z,97532
2018-02-09T09:50:43.781Z,97530
2018-02-09T09:53:12.034Z,97527
2018-02-09T09:55:40.251Z,97527
2018-02-09T09:58:08.439Z,97525
2018-02-09T10:00:37.397Z,97525
2018-02-09T10:03:05.594Z,97525
2018-02-09T10:05:33.792Z,97517
2018-02-09T10:08:02.741Z,97518
2018-02-09T10:10:30.929Z,97518
2018-02-09T10:12:59.133Z,97514
2018-02-09T10:15:28.102Z,97506
2018-02-09T10:17:56.339Z,97506
2018-02-09T10:20:24.514Z,97506
2018-02-09T10:22:52.750Z,97510
2018-02-09T10:25:21.710Z,97505
2018-02-09T10:27:49.899Z,97502
2018-02-09T11:46:15.743Z,97439
2018-02-09T11:48:43.930Z,97444
2018-02-09T11:51:12.959Z,97439
2018-02-09T11:53:41.270Z,97437
2018-02-09T11:56:09.449Z,97432
2018-02-09T11:58:37.681Z,97431
2018-02-09T12:01:05.900Z,97425
2018-02-09T12:03:34.173Z,97423
2018-02-09T12:06:02.379Z,97419
2018-02-09T12:08:30.637Z,97421
2018-02-09T12:11:02.834Z,97415
2018-02-09T12:13:31.828Z,97413
2018-02-09T12:16:00.810Z,97411
2018-02-09T12:18:33.629Z,97411
2018-02-09T12:21:02.098Z,97410
2018-02-09T12:23:30.286Z,97406
2018-02-09T12:25:59.093Z,97403
2018-02-09T12:28:28.636Z,97394
2018-02-09T12:31:00.964Z,97390
2018-02-09T12:33:29.175Z,97390
2018-02-09T12:35:57.472Z,97389
2018-02-09T12:38:31.650Z,97384
2018-02-09T12:40:59.843Z,97385
2018-02-09T12:43:28.003Z,97380
2018-02-09T12:45:56.185Z,97379
2018-02-09T12:48:24.341Z,97375
2018-02-09T12:50:52.512Z,97375
2018-02-09T12:53:20.724Z,97373
2018-02-09T12:55:48.893Z,97368
2018-02-09T12:58:17.125Z,97370
2018-02-09T13:00:45.302Z,97364
2018-02-09T13:03:13.488Z,97363
2018-02-09T13:05:41.698Z,97356
2018-02-09T13:08:09.919Z,97361
2018-02-09T13:10:38.125Z,97357
2018-02-09T13:13:08.250Z,97357
2018-02-09T13:15:36.433Z,97352
2018-02-09T13:18:04.644Z,97355
2018-02-09T13:20:33.599Z,97349
2018-02-09T13:23:19.819Z,97353
2018-02-09T13:25:47.993Z,97357
2018-02-09T13:28:34.903Z,97353
2018-02-09T13:31:03.099Z,97353
2018-02-09T13:33:32.088Z,97348
2018-02-09T13:36:01.032Z,97348
2018-02-09T13:38:29.242Z,97351
2018-02-09T13:40:57.476Z,97347
2018-02-09T13:43:25.661Z,97348
2018-02-09T13:45:53.883Z,97347
2018-02-09T14:32:04.722Z,97332
2018-02-09T14:34:33.848Z,97322
2018-02-09T14:37:02.818Z,97322
2018-02-09T14:39:31.069Z,97326
2018-02-09T14:41:59.289Z,97322
2018-02-09T14:44:28.241Z,97320
2018-02-09T14:46:56.438Z,97319
2018-02-09T14:49:24.633Z,97313
2018-02-09T14:51:53.582Z,97318
2018-02-09T14:54:21.777Z,97314
2018-02-09T14:56:49.973Z,97310
2018-02-09T14:59:18.942Z,97310
2018-02-09T15:01:47.118Z,97311
2018-02-09T15:04:15.342Z,97310
2018-02-09T15:06:43.534Z,97308
2018-02-09T15:09:11.719Z,97312
2018-02-09T15:11:39.914Z,97307
2018-02-09T15:14:08.091Z,97301
2018-02-09T15:16:37.780Z,97299
2018-02-09T15:19:05.961Z,97297
2018-02-09T15:21:34.951Z,97300
2018-02-09T15:24:03.134Z,97298
2018-02-09T15:26:31.398Z,97298
2018-02-09T15:28:59.599Z,97300
2018-02-09T15:31:27.789Z,97299
2018-02-09T15:33:55.987Z,97297
2018-02-09T15:36:24.202Z,97295
2018-02-09T15:38:52.377Z,97283
2018-02-09T15:41:21.157Z,97290
2018-02-09T15:43:49.339Z,97291
2018-02-09T15:46:18.334Z,97290
2018-02-09T15:48:46.514Z,97293
2018-02-09T15:51:14.694Z,97292
2018-02-09T15:53:42.881Z,97286
2018-02-09T15:56:11.106Z,97286
2018-02-09T15:58:39.302Z,97289
2018-02-09T16:01:07.498Z,97284
2018-02-09T16:03:35.693Z,97284
2018-02-09T16:06:03.958Z,97284
2018-02-09T16:08:32.149Z,97279
2018-02-09T16:11:01.114Z,97282
2018-02-09T16:13:29.290Z,97290
2018-02-09T16:15:58.231Z,97287
2018-02-09T16:18:26.429Z,97289
2018-02-09T16:20:54.625Z,97290
2018-02-09T16:23:22.829Z,97287
2018-02-09T16:25:51.020Z,97290
2018-02-09T16:28:20.057Z,97290
2018-02-09T16:30:48.301Z,97298
2018-02-09T16:33:16.528Z,97303
2018-02-09T16:35:44.725Z,97298
2018-02-09T16:38:12.911Z,97295
2018-02-09T16:40:41.890Z,97298
2018-02-09T16:43:10.082Z,97300
2018-02-09T16:45:39.029Z,97301
2018-02-09T16:48:07.223Z,97299
2018-02-09T16:50:35.418Z,97299
2018-02-09T16:53:04.367Z,97308
2018-02-09T16:55:32.538Z,97305
2018-02-09T16:58:00.739Z,97303
2018-02-09T17:00:28.922Z,97307
2018-02-09T17:02:57.162Z,97305
2018-02-09T17:05:25.360Z,97309
2018-02-09T17:07:53.554Z,97308
2018-02-09T17:10:21.731Z,97308
2018-02-09T17:12:50.698Z,97311
2018-02-09T17:15:18.950Z,97310
2018-02-09T17:17:47.119Z,97315
2018-02-09T17:20:15.307Z,97316
2018-02-09T17:22:43.513Z,97313
2018-02-09T17:25:11.693Z,97311
2018-02-09T17:27:39.897Z,97312
2018-02-09T17:30:08.086Z,97311
2018-02-09T17:32:36.257Z,97315
2018-02-09T17:35:04.434Z,97318
2018-02-09T17:37:32.719Z,97319
2018-02-09T17:40:01.673Z,97320
2018-02-09T17:42:30.660Z,97320
2018-02-09T19:06:56.597Z,97314
2018-02-09T19:09:24.807Z,97314
2018-02-09T19:11:53.015Z,97314
2018-02-09T19:14:22.021Z,97321
2018-02-09T19:16:50.266Z,97321
2018-02-09T19:19:18.457Z,97323
2018-02-09T19:21:47.435Z,97324
2018-02-09T19:24:15.636Z,97324
2018-02-09T19:26:43.820Z,97327
2018-02-09T19:29:12.015Z,97334
2018-02-09T19:31:40.197Z,97328
2018-02-09T19:34:08.382Z,97329
2018-02-09T19:36:36.574Z,97329
2018-02-09T19:39:04.815Z,97330
2018-02-09T19:41:33.057Z,97329
2018-02-09T19:44:02.052Z,97322
2018-02-09T19:46:31.050Z,97326
2018-02-09T19:48:59.998Z,97329
2018-02-09T19:51:28.209Z,97330
2018-02-09T19:53:57.178Z,97336
2018-02-09T19:56:25.403Z,97336
2018-02-09T19:58:54.369Z,97332
2018-02-09T20:01:23.407Z,97340
2018-02-09T20:03:51.601Z,97338
2018-02-09T20:06:19.808Z,97338
2018-02-09T20:08:48.775Z,97341
2018-02-09T20:11:17.065Z,97346
2018-02-09T20:13:45.260Z,97340
2018-02-09T20:16:14.220Z,97346
2018-02-09T20:18:42.420Z,97343
2018-02-09T20:21:11.395Z,97349
2018-02-09T20:23:39.597Z,97351
2018-02-09T20:26:08.543Z,97348
2018-02-09T20:28:36.748Z,97349
2018-02-09T20:31:04.959Z,97352
2018-02-09T20:33:33.170Z,97357
2018-02-09T20:36:01.352Z,97353
2018-02-09T20:38:29.556Z,97352
2018-02-09T20:40:58.555Z,97350
2018-02-09T20:43:27.525Z,97349
2018-02-09T20:45:55.831Z,97354
2018-02-09T20:48:24.822Z,97356
2018-02-09T20:50:53.871Z,97349
2018-02-09T20:53:22.083Z,97352
2018-02-09T20:55:50.269Z,97351
2018-02-09T20:58:19.240Z,97345
2018-02-09T21:00:47.440Z,97343
2018-02-09T21:03:16.395Z,97334
2018-02-09T21:05:44.597Z,97341
2018-02-09T21:08:13.568Z,97340
2018-02-09T21:10:41.759Z,97333
2018-02-09T21:13:09.954Z,97338
2018-02-09T21:15:38.946Z,97331
2018-02-09T21:18:07.918Z,97336
2018-02-09T21:20:36.155Z,97339
2018-02-09T21:23:04.372Z,97339
2018-02-09T21:25:32.565Z,97338
2018-02-09T21:28:01.544Z,97333
2018-02-09T21:30:30.514Z,97334
2018-02-09T21:32:58.728Z,97337
2018-02-09T21:35:27.698Z,97330
2018-02-09T21:37:55.900Z,97332
2018-02-09T21:40:24.105Z,97339
2018-02-09T21:42:52.342Z,97331
2018-02-09T21:45:21.359Z,97332
2018-02-09T21:47:49.603Z,97327
2018-02-09T21:50:18.584Z,97325
2018-02-09T21:52:46.793Z,97316
2018-02-09T21:55:14.993Z,97321
2018-02-09T21:57:43.176Z,97321
2018-02-09T22:00:11.408Z,97318
2018-02-09T22:02:40.363Z,97318
2018-02-09T22:05:08.548Z,97318
2018-02-09T22:07:36.748Z,97314
2018-02-09T22:10:05.696Z,97316
2018-02-09T22:12:33.920Z,97312
2018-02-09T22:15:02.893Z,97311
2018-02-09T22:17:31.068Z,97309
2018-02-09T22:19:59.313Z,97310
2018-02-09T22:22:27.519Z,97306
2018-02-09T22:24:55.698Z,97306
2018-02-09T22:27:23.899Z,97308
2018-02-09T22:29:52.082Z,97305
2018-02-09T22:32:20.283Z,97305
2018-02-09T22:34:49.250Z,97305
2018-02-09T22:37:17.486Z,97302
2018-02-09T22:39:45.696Z,97300
2018-02-09T22:42:13.874Z,97295
2018-02-09T22:44:42.086Z,97297
2018-02-09T22:47:10.284Z,97295
2018-02-09T22:49:38.502Z,97293
2018-02-09T22:52:06.690Z,97290
2018-02-09T22:54:34.936Z,97288
2018-02-09T22:57:03.104Z,97283
2018-02-09T22:59:32.177Z,97278
2018-02-09T23:02:00.363Z,97276
2018-02-09T23:04:29.324Z,97276
2018-02-09T23:06:57.574Z,97273
2018-02-09T23:09:25.721Z,97272
2018-02-09T23:11:54.751Z,97274
2018-02-09T23:14:22.948Z,97271
2018-02-09T23:16:51.150Z,97275
2018-02-09T23:19:19.345Z,97272
2018-02-09T23:21:48.311Z,97268
2018-02-09T23:24:16.524Z,97267
2018-02-09T23:26:44.721Z,97265
2018-02-09T23:29:12.998Z,97265
2018-02-09T23:31:41.173Z,97264
2018-02-09T23:34:09.370Z,97264
2018-02-09T23:36:37.578Z,97258
2018-02-09T23:39:06.557Z,97262
2018-02-09T23:41:34.755Z,97257
2018-02-09T23:44:03.705Z,97256
2018-02-09T23:46:31.927Z,97260
2018-02-09T23:49:00.874Z,97261
2018-02-09T23:51:29.046Z,97260
2018-02-09T23:53:57.246Z,97256
2018-02-09T23:56:25.425Z,97256
2018-02-09T23:58:54.402Z,97259
